Skip Navigation LinksHome page > Weather > Current weather Skip Navigation Links

Current Weather

Eureka, Nunavut

For information only: do not use for flight planning or navigation.
Latest weather
Observation time Thursday, October 19, 2017 10:00 PM CDT
Local time Thursday, October 19, 2017 11:58 PM CDT
Flight conditions Visual Meteorological Conditions
Winds
Wind direction Southeast (130°)
Winds variable from 60° to 150°
Wind speed 3 mph
Visibility 15 mi.
Sky condition
Ceiling 4,400 ft. broken clouds
Cloud layer broken clouds 4,400 ft.
Cloud layer broken clouds 7,000 ft.
Temperature -17°F
Dewpoint -22°F
Altimeter 29.91 in.Hg
Derived measurements
Relative humidity 75%
Wind chill -27°F
Density altitude -5412 ft.
Sea-level pressure 29.92 in.Hg
Remarks
Last observation of the day.
METAR CWEU 200300Z 13003KT 060V150 15SM BKN044 BKN070 M27/M30 A2991 RMK SC6AC1 LAST OBS/NEXT 200600Z SLP131

Settings

Location code

InnerDrive.Weather 4.0.6144.1 Release CLR 4.0.30319.36366
Copyright ©2015 Inner Drive Technology. All rights reserved. Portions Copyright ©1986-2015 David Braverman.

Find weather

Site navigation


Skip Navigation Links

Place info

Page info

PayPal - The safer, easier way to pay online!

Return home.

Copyright ©2017 Inner Drive Technology. Purveyors of fine, hand-crafted computer software. Page printed 2017-10-20T04:59:00 UTC.